Time;durP1;ratioP1;P1;durP2;ratioP2;P2;SDS_P1;SDS_P2;PMS_P1;PMS_P2;Temp;Humidity;BMP_temperature;BMP_pressure;BME280_temperature;BME280_humidity;BME280_pressure;Samples;Min_cycle;Max_cycle;Signal;HPM_P1;HPM_P2
2022/09/07 00:02:07;;;;;;;;;;;22.30;44.30;;;;;;5053172;28;19981;-60
2022/09/07 00:04:34;;;;;;;;;;;22.30;44.30;;;;;;5054208;28;19924;-59
2022/09/07 00:07:01;;;;;;;;;;;22.30;44.30;;;;;;5062015;28;19920;-61
2022/09/07 00:09:27;;;;;;;;;;;22.30;44.30;;;;;;5055214;28;19943;-60
2022/09/07 00:11:54;;;;;;;;;;;22.30;44.30;;;;;;5053263;28;20054;-60
2022/09/07 00:14:22;;;;;;;;;;;22.30;44.30;;;;;;5067376;28;19942;-60
2022/09/07 00:16:49;;;;;;;;;;;22.30;44.30;;;;;;5090284;28;19920;-60
2022/09/07 00:19:16;;;;;;;;;;;22.30;44.20;;;;;;5063972;28;20255;-59
2022/09/07 00:21:44;;;;;;;;;;;22.30;44.20;;;;;;5072597;28;20367;-60
2022/09/07 00:24:11;;;;;;;;;;;22.30;44.20;;;;;;5059718;28;20014;-60
2022/09/07 00:26:38;;;;;;;;;;;22.20;44.10;;;;;;5072139;28;20369;-59
2022/09/07 00:29:05;;;;;;;;;;;22.20;44.10;;;;;;5065021;28;19924;-60
2022/09/07 00:31:33;;;;;;;;;;;22.20;44.10;;;;;;5059922;28;19924;-59
2022/09/07 00:34:00;;;;;;;;;;;22.30;44.10;;;;;;5063699;28;19931;-60
2022/09/07 00:36:27;;;;;;;;;;;22.20;44.10;;;;;;5087636;28;20341;-59
2022/09/07 00:38:53;;;;;;;;;;;22.20;44.00;;;;;;5072568;28;19946;-60
2022/09/07 00:41:20;;;;;;;;;;;22.20;44.00;;;;;;5068348;28;19924;-60
2022/09/07 00:43:47;;;;;;;;;;;22.20;44.00;;;;;;5068771;28;19924;-60
2022/09/07 00:46:15;;;;;;;;;;;22.20;44.00;;;;;;5054251;28;19973;-60
2022/09/07 00:48:44;;;;;;;;;;;22.20;44.00;;;;;;5060966;28;19946;-60
2022/09/07 00:51:14;;;;;;;;;;;22.20;44.00;;;;;;5078229;28;19965;-60
2022/09/07 00:53:43;;;;;;;;;;;22.20;44.00;;;;;;5072140;28;19973;-60
2022/09/07 00:56:09;;;;;;;;;;;22.20;44.00;;;;;;5070511;28;19924;-61
2022/09/07 00:58:37;;;;;;;;;;;22.20;43.90;;;;;;5058190;28;20358;-60
2022/09/07 01:01:06;;;;;;;;;;;22.20;43.90;;;;;;5058950;28;19961;-60
2022/09/07 01:03:34;;;;;;;;;;;22.10;43.80;;;;;;5065675;28;20289;-60
2022/09/07 01:06:03;;;;;;;;;;;22.10;43.80;;;;;;5052913;28;19973;-60
2022/09/07 01:08:30;;;;;;;;;;;22.20;43.90;;;;;;5065564;28;20419;-60
2022/09/07 01:10:57;;;;;;;;;;;22.10;43.80;;;;;;5057593;28;19920;-60
2022/09/07 01:13:24;;;;;;;;;;;22.10;43.80;;;;;;5065382;28;20323;-60
2022/09/07 01:15:52;;;;;;;;;;;22.10;43.80;;;;;;5087712;28;19920;-60
2022/09/07 01:18:21;;;;;;;;;;;22.10;43.80;;;;;;5071044;28;19969;-60
2022/09/07 01:20:50;;;;;;;;;;;22.10;43.80;;;;;;5071482;28;19920;-60
2022/09/07 01:23:32;;;;;;;;;;;22.10;43.80;;;;;;5068292;28;19924;-60
2022/09/07 01:26:06;;;;;;;;;;;22.10;43.80;;;;;;5065233;28;20346;-61
2022/09/07 01:28:34;;;;;;;;;;;22.10;43.80;;;;;;5071718;28;19925;-60
2022/09/07 01:31:03;;;;;;;;;;;22.10;43.80;;;;;;5070439;28;20006;-60
2022/09/07 01:33:33;;;;;;;;;;;22.10;43.80;;;;;;5069021;28;20009;-59
2022/09/07 01:36:02;;;;;;;;;;;22.10;43.80;;;;;;5068565;28;20011;-60
2022/09/07 01:38:30;;;;;;;;;;;22.10;43.80;;;;;;5071169;28;19932;-60
2022/09/07 01:40:58;;;;;;;;;;;22.00;43.70;;;;;;5070626;28;19973;-60
2022/09/07 01:43:26;;;;;;;;;;;22.00;43.70;;;;;;5057955;28;19920;-60
2022/09/07 01:45:54;;;;;;;;;;;22.00;43.70;;;;;;5085173;28;19924;-60
2022/09/07 01:48:21;;;;;;;;;;;22.00;43.70;;;;;;5069938;28;19930;-60
2022/09/07 01:50:49;;;;;;;;;;;22.10;43.80;;;;;;5060647;28;19924;-60
2022/09/07 01:53:19;;;;;;;;;;;22.10;43.80;;;;;;5071438;28;20024;-60
2022/09/07 01:55:46;;;;;;;;;;;22.10;43.80;;;;;;5066111;28;19924;-60
2022/09/07 01:58:14;;;;;;;;;;;22.00;43.80;;;;;;5065168;28;19920;-59
2022/09/07 02:00:42;;;;;;;;;;;22.10;43.80;;;;;;5071667;28;19966;-60
2022/09/07 02:03:12;;;;;;;;;;;22.00;43.80;;;;;;5064077;28;19927;-60
2022/09/07 02:05:39;;;;;;;;;;;22.00;43.80;;;;;;5064216;28;19962;-60
2022/09/07 02:08:07;;;;;;;;;;;22.00;43.80;;;;;;5069698;28;20012;-60
2022/09/07 02:10:35;;;;;;;;;;;22.00;43.80;;;;;;5053081;28;19931;-60
2022/09/07 02:13:05;;;;;;;;;;;22.00;43.80;;;;;;5071952;28;19924;-60
2022/09/07 02:15:33;;;;;;;;;;;22.00;43.80;;;;;;5071163;28;19920;-60
2022/09/07 02:18:01;;;;;;;;;;;22.00;43.80;;;;;;5074821;28;19920;-60
2022/09/07 02:20:31;;;;;;;;;;;22.00;43.80;;;;;;5073637;28;19978;-60
2022/09/07 02:22:59;;;;;;;;;;;22.00;43.80;;;;;;5071704;28;20369;-60
2022/09/07 02:25:26;;;;;;;;;;;22.00;43.80;;;;;;5065884;28;19928;-60
2022/09/07 02:27:54;;;;;;;;;;;22.00;43.80;;;;;;5075098;28;19952;-60
2022/09/07 02:30:20;;;;;;;;;;;22.00;43.80;;;;;;5075080;28;19924;-61
2022/09/07 02:32:47;;;;;;;;;;;22.00;43.80;;;;;;5056895;28;19986;-60
2022/09/07 02:35:14;;;;;;;;;;;22.00;44.40;;;;;;5069975;28;19920;-61
2022/09/07 02:37:42;;;;;;;;;;;22.00;43.80;;;;;;5074645;28;19920;-61
2022/09/07 02:40:09;;;;;;;;;;;22.00;43.80;;;;;;5092723;28;19969;-61
2022/09/07 02:42:36;;;;;;;;;;;22.00;43.80;;;;;;5072592;28;19928;-61
2022/09/07 02:45:04;;;;;;;;;;;22.00;43.80;;;;;;5070700;28;19924;-60
2022/09/07 02:47:31;;;;;;;;;;;22.00;43.80;;;;;;5073023;28;19925;-61
2022/09/07 02:50:11;;;;;;;;;;;22.00;43.80;;;;;;5060645;28;20019;-60
2022/09/07 02:52:41;;;;;;;;;;;22.00;43.80;;;;;;5073903;28;20202;-60
2022/09/07 02:55:11;;;;;;;;;;;22.00;43.80;;;;;;5081946;28;19963;-60
2022/09/07 02:57:40;;;;;;;;;;;22.00;43.80;;;;;;5064571;28;20670;-60
2022/09/07 03:00:08;;;;;;;;;;;22.00;43.80;;;;;;5062215;28;19921;-60
2022/09/07 03:02:38;;;;;;;;;;;22.00;43.80;;;;;;5070688;28;19926;-61
2022/09/07 03:05:08;;;;;;;;;;;22.00;43.80;;;;;;5071217;28;19966;-62
2022/09/07 03:07:35;;;;;;;;;;;22.00;43.80;;;;;;5054100;28;19963;-59
2022/09/07 03:10:02;;;;;;;;;;;22.00;43.80;;;;;;5073164;28;19973;-59
2022/09/07 03:12:39;;;;;;;;;;;22.00;43.80;;;;;;5069155;28;19974;-59
2022/09/07 03:15:06;;;;;;;;;;;22.00;43.80;;;;;;5067541;28;19955;-59
2022/09/07 03:17:33;;;;;;;;;;;22.00;43.80;;;;;;5074912;28;19927;-59
2022/09/07 03:20:00;;;;;;;;;;;22.00;43.80;;;;;;5061254;28;19920;-59
2022/09/07 03:22:27;;;;;;;;;;;22.00;43.80;;;;;;5069018;28;19920;-59
2022/09/07 03:24:54;;;;;;;;;;;22.00;43.80;;;;;;5070219;28;19963;-59
2022/09/07 03:27:20;;;;;;;;;;;22.00;43.80;;;;;;5067174;28;19949;-60
2022/09/07 03:29:49;;;;;;;;;;;22.00;43.80;;;;;;5073268;28;19923;-59
2022/09/07 03:32:15;;;;;;;;;;;22.00;43.80;;;;;;5089356;28;19927;-60
2022/09/07 03:34:42;;;;;;;;;;;22.00;43.80;;;;;;5072689;28;19962;-59
2022/09/07 03:37:09;;;;;;;;;;;22.00;43.80;;;;;;5065969;28;19946;-59
2022/09/07 03:39:36;;;;;;;;;;;22.00;43.80;;;;;;5072529;28;19920;-60
2022/09/07 03:42:03;;;;;;;;;;;22.00;43.80;;;;;;5072078;28;19924;-60
2022/09/07 03:44:29;;;;;;;;;;;21.90;43.70;;;;;;5057333;28;19924;-59
2022/09/07 03:46:58;;;;;;;;;;;21.90;43.60;;;;;;5073777;28;19920;-59
2022/09/07 03:49:24;;;;;;;;;;;22.00;43.80;;;;;;5062047;28;19920;-59
2022/09/07 03:51:51;;;;;;;;;;;21.90;43.60;;;;;;5056662;28;20226;-59
2022/09/07 03:54:18;;;;;;;;;;;21.90;43.60;;;;;;5071698;28;19924;-59
2022/09/07 03:56:44;;;;;;;;;;;21.90;43.60;;;;;;5057375;28;19973;-59
2022/09/07 03:59:11;;;;;;;;;;;21.90;43.60;;;;;;5054120;28;20019;-60
2022/09/07 04:01:38;;;;;;;;;;;21.90;43.60;;;;;;5059817;28;19927;-59
2022/09/07 04:04:06;;;;;;;;;;;21.90;43.60;;;;;;5072818;28;20007;-59
2022/09/07 04:06:33;;;;;;;;;;;21.90;43.60;;;;;;5060132;28;19928;-59
2022/09/07 04:09:01;;;;;;;;;;;21.90;43.60;;;;;;5070727;28;19963;-59
2022/09/07 04:11:28;;;;;;;;;;;21.90;43.60;;;;;;5058194;28;19927;-59
2022/09/07 04:13:54;;;;;;;;;;;21.90;43.60;;;;;;5072198;28;19920;-59
2022/09/07 04:16:21;;;;;;;;;;;21.90;43.60;;;;;;5042391;28;19920;-60
2022/09/07 04:18:49;;;;;;;;;;;21.90;43.60;;;;;;5072204;28;20025;-59
2022/09/07 04:21:17;;;;;;;;;;;21.90;43.60;;;;;;5075569;28;19971;-60
2022/09/07 04:23:44;;;;;;;;;;;21.90;43.60;;;;;;5090765;28;19931;-59
2022/09/07 04:26:14;;;;;;;;;;;21.90;43.60;;;;;;5067449;28;19931;-59
2022/09/07 04:28:41;;;;;;;;;;;21.90;43.60;;;;;;5073382;28;19924;-59
2022/09/07 04:31:08;;;;;;;;;;;21.90;43.60;;;;;;5071152;28;19920;-59
2022/09/07 04:33:34;;;;;;;;;;;21.90;43.70;;;;;;5073582;28;19960;-60
2022/09/07 04:36:01;;;;;;;;;;;21.90;43.60;;;;;;5063539;28;19974;-59
2022/09/07 04:38:30;;;;;;;;;;;21.90;43.60;;;;;;5070162;28;20369;-60
2022/09/07 04:41:00;;;;;;;;;;;21.90;43.70;;;;;;5071535;28;19931;-59
2022/09/07 04:43:27;;;;;;;;;;;21.90;43.70;;;;;;5052463;28;20326;-59
2022/09/07 04:45:54;;;;;;;;;;;21.90;43.60;;;;;;5067492;28;19924;-60
2022/09/07 04:48:21;;;;;;;;;;;21.90;43.70;;;;;;5072612;28;19924;-60
2022/09/07 04:50:48;;;;;;;;;;;21.90;43.70;;;;;;5078666;28;19985;-59
2022/09/07 04:53:14;;;;;;;;;;;21.90;43.60;;;;;;5077015;28;19930;-60
2022/09/07 04:55:43;;;;;;;;;;;21.90;43.60;;;;;;5071334;28;20009;-60
2022/09/07 04:58:09;;;;;;;;;;;22.00;43.70;;;;;;5067992;28;19924;-60
2022/09/07 05:00:38;;;;;;;;;;;22.00;43.70;;;;;;5062343;28;19920;-60
2022/09/07 05:03:05;;;;;;;;;;;21.90;43.60;;;;;;5088797;28;19973;-59
2022/09/07 05:05:32;;;;;;;;;;;22.00;43.70;;;;;;5083693;28;19920;-59
2022/09/07 05:07:58;;;;;;;;;;;22.00;43.70;;;;;;5089126;28;19920;-59
2022/09/07 05:10:25;;;;;;;;;;;22.00;43.70;;;;;;5068737;28;19927;-60
2022/09/07 05:12:53;;;;;;;;;;;22.00;43.70;;;;;;5089077;28;20019;-59
2022/09/07 05:15:21;;;;;;;;;;;22.00;43.70;;;;;;5068395;28;19924;-60
2022/09/07 05:17:48;;;;;;;;;;;22.00;43.70;;;;;;5068630;28;19920;-60
2022/09/07 05:20:15;;;;;;;;;;;22.00;43.70;;;;;;5087383;28;20435;-59
2022/09/07 05:22:42;;;;;;;;;;;22.00;43.70;;;;;;5070638;28;19976;-59
2022/09/07 05:25:09;;;;;;;;;;;22.00;43.70;;;;;;5076176;28;19928;-63
2022/09/07 05:27:36;;;;;;;;;;;22.00;43.80;;;;;;5070589;28;19927;-60
2022/09/07 05:30:04;;;;;;;;;;;22.00;43.80;;;;;;5071729;28;19925;-59
2022/09/07 05:32:31;;;;;;;;;;;22.00;43.80;;;;;;5075565;28;20298;-59
2022/09/07 05:34:57;;;;;;;;;;;22.00;43.80;;;;;;5067182;28;19920;-60
2022/09/07 05:37:24;;;;;;;;;;;22.00;43.80;;;;;;5088780;28;20311;-60
2022/09/07 05:39:53;;;;;;;;;;;22.00;43.80;;;;;;5087953;28;19920;-60
2022/09/07 05:42:21;;;;;;;;;;;22.00;43.80;;;;;;5069025;28;19924;-60
2022/09/07 05:44:48;;;;;;;;;;;22.00;43.80;;;;;;5070044;28;20328;-61
2022/09/07 05:47:16;;;;;;;;;;;22.00;43.80;;;;;;5071462;28;19920;-60
2022/09/07 05:49:43;;;;;;;;;;;22.00;43.80;;;;;;5071446;28;19920;-60
2022/09/07 05:52:10;;;;;;;;;;;22.00;43.90;;;;;;5068405;28;19928;-60
2022/09/07 05:54:37;;;;;;;;;;;22.00;43.90;;;;;;5091149;28;19920;-61
2022/09/07 05:57:04;;;;;;;;;;;22.00;43.90;;;;;;5074746;28;19963;-60
2022/09/07 05:59:30;;;;;;;;;;;22.00;43.90;;;;;;5073031;28;19969;-60
2022/09/07 06:01:57;;;;;;;;;;;22.00;44.00;;;;;;5089608;28;20280;-60
2022/09/07 06:04:25;;;;;;;;;;;22.00;44.00;;;;;;5068230;28;19973;-60
2022/09/07 06:06:52;;;;;;;;;;;22.00;44.00;;;;;;5074090;28;19924;-60
2022/09/07 06:09:19;;;;;;;;;;;21.90;44.00;;;;;;5092796;28;19932;-59
2022/09/07 06:11:46;;;;;;;;;;;21.90;44.00;;;;;;5072103;28;19984;-60
2022/09/07 06:14:12;;;;;;;;;;;21.90;44.10;;;;;;5073537;28;19962;-60
2022/09/07 06:16:39;;;;;;;;;;;22.00;44.20;;;;;;5073948;28;19920;-60
2022/09/07 06:19:06;;;;;;;;;;;21.90;44.20;;;;;;5073602;28;19920;-60
2022/09/07 06:21:36;;;;;;;;;;;22.00;44.30;;;;;;5074478;28;19959;-60
2022/09/07 06:24:03;;;;;;;;;;;22.00;44.40;;;;;;5073248;28;20345;-60
2022/09/07 06:26:30;;;;;;;;;;;22.00;44.40;;;;;;5086874;28;19924;-59
2022/09/07 06:28:56;;;;;;;;;;;22.00;44.50;;;;;;5072776;28;20023;-60
2022/09/07 06:31:23;;;;;;;;;;;22.00;45.20;;;;;;5088928;28;19932;-59
2022/09/07 06:33:50;;;;;;;;;;;22.00;44.60;;;;;;5073343;28;20269;-60
2022/09/07 06:36:17;;;;;;;;;;;22.00;44.70;;;;;;5074607;28;20037;-60
2022/09/07 06:38:45;;;;;;;;;;;22.00;44.80;;;;;;5073528;28;19936;-60
2022/09/07 06:41:12;;;;;;;;;;;22.00;45.00;;;;;;5068060;28;19938;-60
2022/09/07 06:43:39;;;;;;;;;;;22.00;45.10;;;;;;5067507;28;19928;-60
2022/09/07 06:46:06;;;;;;;;;;;22.00;45.20;;;;;;5066974;28;20230;-60
2022/09/07 06:48:33;;;;;;;;;;;22.00;45.30;;;;;;5071119;28;19982;-59
2022/09/07 06:51:00;;;;;;;;;;;22.00;45.40;;;;;;5071601;28;19936;-60
2022/09/07 06:53:27;;;;;;;;;;;22.00;45.50;;;;;;5070198;28;19931;-60
2022/09/07 06:55:55;;;;;;;;;;;22.00;45.70;;;;;;5070209;28;19972;-61
2022/09/07 06:58:23;;;;;;;;;;;22.00;45.80;;;;;;5068815;28;19931;-59
2022/09/07 07:00:50;;;;;;;;;;;22.00;45.90;;;;;;5059096;28;19924;-59
2022/09/07 07:03:17;;;;;;;;;;;22.00;45.90;;;;;;5064380;28;19974;-59
2022/09/07 07:05:43;;;;;;;;;;;22.00;46.00;;;;;;5067615;28;19919;-59
2022/09/07 07:08:10;;;;;;;;;;;22.00;46.00;;;;;;5065300;28;19963;-60
2022/09/07 07:10:38;;;;;;;;;;;22.00;46.20;;;;;;5065327;28;19957;-59
2022/09/07 07:13:06;;;;;;;;;;;22.00;46.30;;;;;;5072171;28;19930;-60
2022/09/07 07:15:32;;;;;;;;;;;22.00;46.40;;;;;;5090196;28;19973;-59
2022/09/07 07:17:59;;;;;;;;;;;22.00;46.40;;;;;;5064313;28;19920;-59
2022/09/07 07:20:26;;;;;;;;;;;22.00;46.40;;;;;;5073005;28;19924;-59
2022/09/07 07:22:53;;;;;;;;;;;22.00;46.50;;;;;;5068990;28;19924;-59
2022/09/07 07:25:19;;;;;;;;;;;22.00;46.50;;;;;;5066924;28;19924;-60
2022/09/07 07:27:46;;;;;;;;;;;22.00;46.50;;;;;;5083803;28;19950;-60
2022/09/07 07:30:14;;;;;;;;;;;22.00;46.60;;;;;;5064949;28;19924;-59
2022/09/07 07:32:41;;;;;;;;;;;22.00;46.80;;;;;;5070143;28;19927;-59
2022/09/07 07:35:08;;;;;;;;;;;22.00;46.90;;;;;;5072911;28;20348;-60
2022/09/07 07:37:36;;;;;;;;;;;22.00;47.00;;;;;;5072708;28;19920;-60
2022/09/07 07:40:02;;;;;;;;;;;22.00;47.00;;;;;;5070156;28;20014;-60
2022/09/07 07:42:29;;;;;;;;;;;22.00;47.00;;;;;;5068107;28;20280;-59
2022/09/07 07:44:56;;;;;;;;;;;22.00;47.00;;;;;;5083792;28;19928;-59
2022/09/07 07:47:25;;;;;;;;;;;22.00;46.80;;;;;;5084369;28;19932;-59
2022/09/07 07:49:52;;;;;;;;;;;22.00;46.70;;;;;;5057499;28;19928;-59
2022/09/07 07:52:19;;;;;;;;;;;22.00;46.70;;;;;;5065309;28;19999;-59
2022/09/07 07:54:46;;;;;;;;;;;22.00;46.80;;;;;;5083854;28;19920;-59
2022/09/07 07:57:13;;;;;;;;;;;22.00;46.70;;;;;;5061537;28;19943;-60
2022/09/07 07:59:39;;;;;;;;;;;22.00;46.60;;;;;;5080170;28;19973;-59
2022/09/07 08:02:07;;;;;;;;;;;22.00;46.80;;;;;;5083763;28;19924;-59
2022/09/07 08:04:35;;;;;;;;;;;22.00;46.90;;;;;;5068102;28;19924;-59
2022/09/07 08:07:02;;;;;;;;;;;22.00;47.00;;;;;;5061722;28;19931;-59
2022/09/07 08:09:29;;;;;;;;;;;22.00;47.00;;;;;;5065085;28;19974;-59
2022/09/07 08:11:56;;;;;;;;;;;22.00;47.10;;;;;;5071300;28;19924;-60
2022/09/07 08:14:22;;;;;;;;;;;22.00;47.10;;;;;;5069646;28;19932;-60
2022/09/07 08:16:49;;;;;;;;;;;22.00;47.10;;;;;;5065142;28;19924;-59
2022/09/07 08:19:16;;;;;;;;;;;22.00;47.00;;;;;;5086942;28;19993;-60
2022/09/07 08:21:44;;;;;;;;;;;22.00;47.00;;;;;;5064161;28;19931;-59
2022/09/07 08:24:11;;;;;;;;;;;22.00;47.00;;;;;;5067181;28;19942;-59
2022/09/07 08:26:38;;;;;;;;;;;22.00;47.00;;;;;;5087826;28;19920;-60
2022/09/07 08:29:04;;;;;;;;;;;22.00;46.90;;;;;;5066963;28;19924;-60
2022/09/07 08:31:31;;;;;;;;;;;22.00;46.90;;;;;;5070045;28;20012;-60
2022/09/07 08:33:59;;;;;;;;;;;22.00;46.90;;;;;;5070928;28;19986;-59
2022/09/07 08:36:26;;;;;;;;;;;22.00;46.80;;;;;;5068331;28;19920;-59
2022/09/07 08:38:54;;;;;;;;;;;22.00;46.70;;;;;;5087424;28;20105;-59
2022/09/07 08:41:35;;;;;;;;;;;22.00;46.70;;;;;;5060304;28;20006;-59
2022/09/07 08:44:02;;;;;;;;;;;22.00;46.70;;;;;;5065549;28;19963;-59
2022/09/07 08:46:30;;;;;;;;;;;22.00;46.70;;;;;;5059326;28;20013;-60
2022/09/07 08:48:57;;;;;;;;;;;22.00;46.70;;;;;;5069464;28;20007;-60
2022/09/07 08:51:25;;;;;;;;;;;22.10;46.80;;;;;;5068017;28;19921;-60
2022/09/07 08:53:54;;;;;;;;;;;22.10;46.80;;;;;;5086378;28;19963;-60
2022/09/07 08:56:21;;;;;;;;;;;22.10;46.80;;;;;;5069341;28;19940;-59
2022/09/07 08:58:48;;;;;;;;;;;22.10;46.90;;;;;;5063614;28;19974;-60
2022/09/07 09:01:15;;;;;;;;;;;22.10;46.80;;;;;;5069100;28;19973;-59
2022/09/07 09:03:42;;;;;;;;;;;22.10;46.70;;;;;;5069706;28;19981;-60
2022/09/07 09:06:10;;;;;;;;;;;22.10;46.70;;;;;;5070889;28;19920;-60
2022/09/07 09:08:41;;;;;;;;;;;22.10;46.70;;;;;;5070532;28;20018;-59
2022/09/07 09:11:10;;;;;;;;;;;22.10;46.70;;;;;;5069486;28;19963;-60
2022/09/07 09:13:44;;;;;;;;;;;22.10;46.70;;;;;;5059636;28;19920;-60
2022/09/07 09:16:12;;;;;;;;;;;22.10;46.70;;;;;;5084779;28;19932;-60
2022/09/07 09:18:45;;;;;;;;;;;22.10;46.80;;;;;;5064907;28;20019;-60
2022/09/07 09:21:12;;;;;;;;;;;22.20;46.80;;;;;;5070936;28;20428;-60
2022/09/07 09:23:40;;;;;;;;;;;22.20;46.90;;;;;;5071123;28;19924;-60
2022/09/07 09:26:07;;;;;;;;;;;22.20;47.00;;;;;;5089033;28;20054;-60
2022/09/07 09:28:35;;;;;;;;;;;22.20;47.10;;;;;;5092197;28;19920;-60
2022/09/07 09:31:02;;;;;;;;;;;22.20;47.10;;;;;;5075229;28;19967;-60
2022/09/07 09:33:28;;;;;;;;;;;22.20;47.10;;;;;;5081980;28;20018;-60
2022/09/07 09:35:56;;;;;;;;;;;22.20;47.10;;;;;;5073049;28;19927;-60
2022/09/07 09:38:28;;;;;;;;;;;22.20;47.10;;;;;;5057241;28;19924;-61
2022/09/07 09:40:55;;;;;;;;;;;22.20;47.30;;;;;;5071186;28;19936;-61
2022/09/07 09:43:21;;;;;;;;;;;22.20;47.40;;;;;;5091292;28;19973;-60
2022/09/07 09:45:50;;;;;;;;;;;22.20;47.40;;;;;;5089955;28;19928;-61
2022/09/07 09:48:17;;;;;;;;;;;22.20;47.30;;;;;;5070730;28;20289;-61
2022/09/07 09:50:46;;;;;;;;;;;22.20;47.30;;;;;;5088853;28;19920;-60
2022/09/07 09:53:17;;;;;;;;;;;22.20;47.30;;;;;;5091499;28;19951;-61
2022/09/07 09:55:44;;;;;;;;;;;22.20;47.40;;;;;;5087809;28;19960;-61
2022/09/07 09:58:26;;;;;;;;;;;22.20;47.40;;;;;;5074816;28;20018;-61
2022/09/07 10:00:57;;;;;;;;;;;22.20;47.60;;;;;;5089289;28;19989;-60
2022/09/07 10:03:25;;;;;;;;;;;22.20;47.60;;;;;;5070959;28;20018;-60
2022/09/07 10:05:53;;;;;;;;;;;22.20;47.60;;;;;;5064517;28;19921;-60
2022/09/07 10:08:20;;;;;;;;;;;22.20;47.50;;;;;;5083108;28;19928;-60
2022/09/07 10:10:50;;;;;;;;;;;22.20;47.60;;;;;;5092866;28;20001;-60
2022/09/07 10:13:18;;;;;;;;;;;22.20;47.70;;;;;;5084735;28;19926;-61
2022/09/07 10:15:45;;;;;;;;;;;22.20;47.80;;;;;;5076851;28;20019;-60
2022/09/07 10:18:17;;;;;;;;;;;22.20;47.90;;;;;;5067884;28;19970;-61
2022/09/07 10:20:44;;;;;;;;;;;22.20;48.00;;;;;;5074029;28;19953;-60
2022/09/07 10:23:18;;;;;;;;;;;22.20;47.90;;;;;;5072988;28;20014;-61
2022/09/07 10:25:46;;;;;;;;;;;22.20;48.00;;;;;;5069518;28;19930;-61
2022/09/07 10:28:19;;;;;;;;;;;22.20;48.00;;;;;;5091376;28;19977;-60
2022/09/07 10:30:51;;;;;;;;;;;22.20;48.10;;;;;;5073911;28;20404;-61
2022/09/07 10:33:20;;;;;;;;;;;22.20;48.10;;;;;;5084786;28;20046;-61
2022/09/07 10:35:49;;;;;;;;;;;22.20;48.20;;;;;;5075222;28;19921;-61
2022/09/07 10:38:16;;;;;;;;;;;22.20;48.30;;;;;;5054122;28;19964;-61
2022/09/07 10:40:44;;;;;;;;;;;22.20;48.30;;;;;;5078769;28;19979;-60
2022/09/07 10:43:15;;;;;;;;;;;22.20;48.30;;;;;;5062423;28;19920;-60
2022/09/07 10:45:44;;;;;;;;;;;22.20;48.10;;;;;;5066438;28;19920;-61
2022/09/07 10:48:12;;;;;;;;;;;22.20;48.10;;;;;;5069870;28;20770;-61
2022/09/07 10:50:42;;;;;;;;;;;22.20;48.10;;;;;;5072129;28;19924;-60
2022/09/07 10:53:19;;;;;;;;;;;22.20;48.10;;;;;;5072066;28;19920;-61
2022/09/07 10:55:48;;;;;;;;;;;22.20;48.20;;;;;;5067503;28;19927;-60
2022/09/07 10:58:18;;;;;;;;;;;22.20;48.10;;;;;;5071037;28;19986;-60
2022/09/07 11:00:47;;;;;;;;;;;22.30;48.30;;;;;;5070224;28;19920;-60
2022/09/07 11:03:17;;;;;;;;;;;22.30;48.30;;;;;;5065361;28;20422;-60
2022/09/07 11:05:49;;;;;;;;;;;22.30;48.30;;;;;;5084677;28;19967;-60
2022/09/07 11:08:18;;;;;;;;;;;22.20;48.10;;;;;;5058371;28;19981;-60
2022/09/07 11:10:46;;;;;;;;;;;22.30;48.00;;;;;;5067306;28;20157;-60
2022/09/07 11:13:14;;;;;;;;;;;22.30;48.10;;;;;;5089597;28;19989;-60
2022/09/07 11:15:41;;;;;;;;;;;22.30;48.10;;;;;;5080762;28;19920;-60
2022/09/07 11:18:11;;;;;;;;;;;22.30;48.00;;;;;;5062948;28;19960;-60
2022/09/07 11:20:38;;;;;;;;;;;22.30;48.00;;;;;;5067523;28;19974;-60
2022/09/07 11:23:09;;;;;;;;;;;22.30;48.00;;;;;;5071994;28;19920;-61
2022/09/07 11:25:37;;;;;;;;;;;22.30;48.00;;;;;;5090945;28;19931;-60
2022/09/07 11:28:05;;;;;;;;;;;22.30;48.10;;;;;;5059698;28;19924;-60
2022/09/07 11:30:32;;;;;;;;;;;22.30;48.20;;;;;;5073461;28;19919;-60
2022/09/07 11:33:00;;;;;;;;;;;22.30;48.30;;;;;;5070482;28;19921;-59
2022/09/07 11:35:32;;;;;;;;;;;22.30;48.30;;;;;;5083626;28;19924;-59
2022/09/07 11:38:00;;;;;;;;;;;22.30;48.30;;;;;;5070914;28;19927;-60
2022/09/07 11:40:29;;;;;;;;;;;22.30;48.20;;;;;;5068602;28;19919;-60
2022/09/07 11:42:58;;;;;;;;;;;22.30;48.20;;;;;;5068654;28;19985;-60
2022/09/07 11:45:28;;;;;;;;;;;22.30;48.40;;;;;;5072489;28;19931;-60
2022/09/07 11:47:56;;;;;;;;;;;22.30;48.30;;;;;;5065421;28;19928;-60
2022/09/07 11:50:23;;;;;;;;;;;22.30;48.30;;;;;;5088705;28;20048;-59
2022/09/07 11:52:50;;;;;;;;;;;22.40;48.40;;;;;;5067155;28;19925;-59
2022/09/07 11:55:19;;;;;;;;;;;22.40;48.30;;;;;;5080370;28;19920;-60
2022/09/07 11:58:04;;;;;;;;;;;22.40;48.30;;;;;;5086240;28;19932;-60
2022/09/07 12:00:32;;;;;;;;;;;22.40;48.30;;;;;;5060544;28;19920;-60
2022/09/07 12:03:17;;;;;;;;;;;22.40;48.30;;;;;;5067008;28;19946;-60
2022/09/07 12:05:52;;;;;;;;;;;22.40;48.20;;;;;;5074779;28;19931;-60
2022/09/07 12:08:21;;;;;;;;;;;22.40;48.30;;;;;;5067694;28;20273;-60
2022/09/07 12:10:57;;;;;;;;;;;22.40;48.40;;;;;;5073164;28;19924;-60
2022/09/07 12:13:32;;;;;;;;;;;22.40;48.60;;;;;;5064155;28;20387;-60
2022/09/07 12:16:01;;;;;;;;;;;22.40;48.60;;;;;;5072852;28;19923;-60
2022/09/07 12:18:32;;;;;;;;;;;22.40;48.60;;;;;;5087955;28;19920;-61
2022/09/07 12:20:59;;;;;;;;;;;22.40;48.50;;;;;;5072349;28;19921;-60
2022/09/07 12:23:27;;;;;;;;;;;22.40;48.40;;;;;;5085014;28;19967;-60
2022/09/07 12:25:54;;;;;;;;;;;22.40;48.50;;;;;;5057811;28;19977;-60
2022/09/07 12:28:35;;;;;;;;;;;22.40;48.60;;;;;;5078274;28;19946;-60
2022/09/07 12:31:04;;;;;;;;;;;22.50;48.70;;;;;;5054394;28;19985;-61
2022/09/07 12:33:31;;;;;;;;;;;22.50;48.80;;;;;;5060848;28;19921;-61
2022/09/07 12:35:59;;;;;;;;;;;22.50;48.80;;;;;;5067245;28;20411;-61
2022/09/07 12:38:47;;;;;;;;;;;22.50;48.70;;;;;;5062401;28;19924;-61
2022/09/07 12:41:21;;;;;;;;;;;22.50;48.70;;;;;;5074535;28;20420;-61
2022/09/07 12:44:04;;;;;;;;;;;22.50;48.70;;;;;;5087718;28;20405;-61
2022/09/07 12:46:42;;;;;;;;;;;22.50;48.60;;;;;;5072123;28;19924;-61
2022/09/07 12:49:11;;;;;;;;;;;22.50;48.60;;;;;;5061727;28;19924;-61
2022/09/07 12:51:38;;;;;;;;;;;22.50;48.60;;;;;;5063100;28;19974;-61
2022/09/07 12:54:06;;;;;;;;;;;22.50;48.70;;;;;;5057175;28;19924;-61
2022/09/07 12:56:36;;;;;;;;;;;22.50;48.70;;;;;;5057452;28;19924;-60
2022/09/07 12:59:17;;;;;;;;;;;22.50;48.60;;;;;;5062004;28;20007;-61
2022/09/07 13:01:46;;;;;;;;;;;22.50;48.60;;;;;;5071510;28;19920;-61
2022/09/07 13:04:26;;;;;;;;;;;22.50;48.70;;;;;;5060419;28;19921;-61
2022/09/07 13:07:08;;;;;;;;;;;22.60;48.80;;;;;;5080192;28;19963;-62
2022/09/07 13:09:35;;;;;;;;;;;22.60;48.80;;;;;;5051603;28;19971;-62
2022/09/07 13:12:04;;;;;;;;;;;22.60;48.80;;;;;;5075406;28;20411;-61
2022/09/07 13:14:32;;;;;;;;;;;22.60;48.80;;;;;;5081463;28;20281;-61
2022/09/07 13:17:17;;;;;;;;;;;22.60;48.80;;;;;;5054853;28;19928;-61
2022/09/07 13:20:03;;;;;;;;;;;22.60;48.80;;;;;;5077407;28;19974;-61
2022/09/07 13:22:48;;;;;;;;;;;22.60;48.90;;;;;;5067335;28;19971;-61
2022/09/07 13:25:36;;;;;;;;;;;22.60;48.80;;;;;;5020767;28;19928;-61
2022/09/07 13:28:04;;;;;;;;;;;22.60;49.50;;;;;;5058291;28;19935;-60
2022/09/07 13:30:36;;;;;;;;;;;22.60;48.90;;;;;;5061689;28;20290;-60
2022/09/07 13:33:21;;;;;;;;;;;22.60;48.90;;;;;;5060473;28;19920;-60
2022/09/07 13:35:49;;;;;;;;;;;22.60;48.90;;;;;;5068987;28;19924;-60
2022/09/07 13:38:16;;;;;;;;;;;22.60;49.00;;;;;;5062119;28;19924;-60
2022/09/07 13:40:44;;;;;;;;;;;22.60;49.00;;;;;;5066901;28;19928;-60
2022/09/07 13:43:14;;;;;;;;;;;22.60;49.00;;;;;;5064255;28;19938;-60
2022/09/07 13:45:45;;;;;;;;;;;22.60;49.10;;;;;;5069630;28;20022;-61
2022/09/07 13:48:16;;;;;;;;;;;22.60;49.00;;;;;;5063201;28;19927;-60
2022/09/07 13:50:45;;;;;;;;;;;22.60;49.00;;;;;;5057630;28;20011;-60
2022/09/07 13:53:27;;;;;;;;;;;22.60;49.10;;;;;;5067351;28;19947;-61
2022/09/07 13:55:55;;;;;;;;;;;22.70;49.30;;;;;;5062022;28;19928;-60
2022/09/07 13:58:26;;;;;;;;;;;22.70;49.30;;;;;;5067196;28;20008;-60
2022/09/07 14:00:53;;;;;;;;;;;22.70;49.30;;;;;;5062602;28;20011;-60
2022/09/07 14:03:19;;;;;;;;;;;22.70;49.30;;;;;;5066971;28;19973;-60
2022/09/07 14:05:46;;;;;;;;;;;22.70;49.30;;;;;;5065604;28;19920;-60
2022/09/07 14:08:23;;;;;;;;;;;22.70;49.30;;;;;;5064736;28;20342;-60
2022/09/07 14:10:50;;;;;;;;;;;22.70;49.30;;;;;;5063851;28;20015;-60
2022/09/07 14:13:16;;;;;;;;;;;22.70;49.40;;;;;;5069011;28;20018;-61
2022/09/07 14:15:44;;;;;;;;;;;22.70;49.40;;;;;;5067554;28;19959;-61
2022/09/07 14:18:11;;;;;;;;;;;22.70;49.40;;;;;;5066894;28;19997;-61
2022/09/07 14:20:38;;;;;;;;;;;22.70;49.50;;;;;;5068182;28;20018;-60
2022/09/07 14:23:10;;;;;;;;;;;22.70;49.60;;;;;;5064438;28;19978;-62
2022/09/07 14:25:37;;;;;;;;;;;22.70;49.60;;;;;;5063379;28;19924;-61